Time;durP1;ratioP1;P1;durP2;ratioP2;P2;SDS_P1;SDS_P2;PMS_P1;PMS_P2;Temp;Humidity;BMP_temperature;BMP_pressure;BME280_temperature;BME280_humidity;BME280_pressure;Samples;Min_cycle;Max_cycle;Signal;HPM_P1;HPM_P2
2022/08/04 00:02:30;;;;;;;1.80;1.27;;;26.50;49.90;;;;;;5070728;28;20028;-39
2022/08/04 00:05:09;;;;;;;2.00;1.50;;;26.40;49.80;;;;;;5076072;28;20537;-39
2022/08/04 00:07:44;;;;;;;3.15;1.50;;;26.40;50.10;;;;;;5068545;28;20021;-41
2022/08/04 00:10:10;;;;;;;1.95;1.27;;;26.40;50.00;;;;;;5073829;28;20115;-39
2022/08/04 00:12:41;;;;;;;2.78;1.50;;;26.40;50.30;;;;;;5074041;28;20541;-39
2022/08/04 00:15:10;;;;;;;2.72;1.73;;;26.40;50.30;;;;;;5073362;28;20029;-40
2022/08/04 00:17:47;;;;;;;2.50;1.30;;;26.40;50.20;;;;;;5074311;28;20112;-39
2022/08/04 00:20:17;;;;;;;1.52;1.13;;;26.30;50.30;;;;;;5070843;28;20082;-39
2022/08/04 00:22:45;;;;;;;2.42;1.17;;;26.30;50.30;;;;;;5074253;28;20033;-39
2022/08/04 00:25:10;;;;;;;3.28;1.20;;;26.40;50.10;;;;;;5072849;28;20102;-39
2022/08/04 00:27:37;;;;;;;2.55;1.48;;;26.40;49.90;;;;;;5065166;28;20477;-39
2022/08/04 00:30:05;;;;;;;1.80;1.27;;;26.50;50.10;;;;;;5073533;28;20028;-44
2022/08/04 00:32:31;;;;;;;1.95;1.27;;;26.50;50.10;;;;;;5073776;28;20386;-39
2022/08/04 00:34:58;;;;;;;2.38;1.10;;;26.50;50.10;;;;;;5073679;28;20020;-39
2022/08/04 00:37:24;;;;;;;1.63;1.48;;;26.50;50.10;;;;;;5071821;28;20100;-39
2022/08/04 00:39:52;;;;;;;4.22;1.45;;;26.40;50.10;;;;;;5071160;28;20028;-39
2022/08/04 00:42:57;;;;;;;1.42;1.02;;;26.40;50.80;;;;;;5073126;28;20040;-39
2022/08/04 00:45:26;;;;;;;1.35;1.20;;;26.40;50.00;;;;;;5065182;28;20602;-39
2022/08/04 00:48:16;;;;;;;1.88;1.10;;;26.40;49.90;;;;;;5073574;28;20017;-39
2022/08/04 00:50:54;;;;;;;1.95;1.10;;;26.40;49.80;;;;;;5068421;28;20107;-39
2022/08/04 00:53:56;;;;;;;1.73;1.30;;;26.40;49.70;;;;;;5072450;28;20393;-39
2022/08/04 00:56:44;;;;;;;2.08;1.15;;;26.40;49.70;;;;;;5066613;28;20032;-41
2022/08/04 01:00:02;;;;;;;2.78;1.15;;;26.40;49.70;;;;;;5072326;28;20154;-39
2022/08/04 01:02:50;;;;;;;1.40;1.20;;;26.40;49.70;;;;;;5066078;28;20501;-39
2022/08/04 01:05:44;;;;;;;2.35;1.00;;;26.40;49.90;;;;;;5070161;28;20059;-39
2022/08/04 01:08:27;;;;;;;2.70;1.00;;;26.30;49.80;;;;;;5068966;28;20025;-39
2022/08/04 01:11:17;;;;;;;1.52;1.13;;;26.30;49.70;;;;;;5072393;28;20076;-39
2022/08/04 01:14:01;;;;;;;1.38;1.15;;;26.30;49.90;;;;;;5064969;28;20057;-41
2022/08/04 01:16:33;;;;;;;2.08;1.10;;;26.30;49.90;;;;;;5072069;28;20400;-40
2022/08/04 01:19:02;;;;;;;2.78;1.25;;;26.30;49.90;;;;;;5070195;28;20105;-39
2022/08/04 01:21:45;;;;;;;2.20;1.33;;;26.30;50.00;;;;;;5072016;28;20067;-39
2022/08/04 01:24:37;;;;;;;3.30;1.17;;;26.30;50.30;;;;;;5066092;28;20032;-43
2022/08/04 01:27:10;;;;;;;2.92;1.17;;;26.30;50.10;;;;;;5070174;28;20065;-39
2022/08/04 01:30:05;;;;;;;1.63;1.10;;;26.30;50.20;;;;;;5070909;28;20033;-39
2022/08/04 01:32:36;;;;;;;2.05;1.30;;;26.30;50.50;;;;;;5056185;28;20044;-39
2022/08/04 01:35:26;;;;;;;2.33;1.17;;;26.20;50.60;;;;;;5070668;28;20103;-39
2022/08/04 01:38:15;;;;;;;3.72;1.48;;;26.20;50.50;;;;;;5067150;28;20040;-39
2022/08/04 01:40:43;;;;;;;2.55;1.60;;;26.20;50.70;;;;;;5065321;28;20052;-39
2022/08/04 01:43:12;;;;;;;2.03;1.55;;;26.20;51.00;;;;;;5071486;28;20028;-45
2022/08/04 01:45:38;;;;;;;1.42;1.25;;;26.20;51.10;;;;;;5071505;28;20457;-39
2022/08/04 01:48:06;;;;;;;3.25;1.65;;;26.20;51.00;;;;;;5072393;28;20107;-39
2022/08/04 01:50:35;;;;;;;1.70;1.20;;;26.10;50.90;;;;;;5070949;28;20100;-39
2022/08/04 01:53:02;;;;;;;2.03;1.33;;;26.20;50.90;;;;;;5072311;28;20031;-39
2022/08/04 01:55:29;;;;;;;1.63;1.10;;;26.20;50.80;;;;;;5071788;28;20568;-39
2022/08/04 01:57:58;;;;;;;2.35;1.25;;;26.20;50.80;;;;;;5073567;28;20028;-39
2022/08/04 02:00:26;;;;;;;2.13;1.40;;;26.20;50.90;;;;;;5072771;28;20025;-39
2022/08/04 02:02:53;;;;;;;4.15;1.58;;;26.10;50.90;;;;;;5068020;28;20025;-39
2022/08/04 02:05:21;;;;;;;2.40;1.63;;;26.10;50.90;;;;;;5071172;28;20040;-39
2022/08/04 02:07:59;;;;;;;2.55;1.42;;;26.10;51.10;;;;;;5065132;28;20024;-39
2022/08/04 02:10:36;;;;;;;1.75;1.55;;;26.10;51.10;;;;;;5066391;28;20078;-43
2022/08/04 02:13:22;;;;;;;3.03;1.40;;;26.10;51.10;;;;;;5071965;28;20036;-39
2022/08/04 02:16:00;;;;;;;1.48;1.27;;;26.10;51.00;;;;;;5071901;28;20191;-39
2022/08/04 02:19:00;;;;;;;3.17;1.63;;;26.10;51.00;;;;;;5071754;28;20492;-39
2022/08/04 02:21:28;;;;;;;2.95;1.27;;;26.10;51.20;;;;;;5071004;28;20139;-39
2022/08/04 02:24:04;;;;;;;1.67;1.30;;;26.10;51.10;;;;;;5071257;28;20017;-39
2022/08/04 02:26:33;;;;;;;0.90;0.90;;;26.10;51.10;;;;;;5065106;28;20028;-39
2022/08/04 02:29:20;;;;;;;2.53;1.05;;;26.10;51.00;;;;;;5054404;28;20167;-39
2022/08/04 02:32:07;;;;;;;1.17;1.00;;;26.00;50.90;;;;;;5071605;28;20470;-39
2022/08/04 02:34:55;;;;;;;2.60;1.48;;;26.00;50.60;;;;;;5065074;28;20078;-39
2022/08/04 02:37:23;;;;;;;3.22;1.60;;;26.00;50.70;;;;;;5070741;28;20017;-40
2022/08/04 02:39:52;;;;;;;1.80;1.33;;;26.00;50.70;;;;;;5070255;28;20078;-39
2022/08/04 02:42:18;;;;;;;1.58;1.10;;;26.00;50.80;;;;;;5070363;28;20393;-39
2022/08/04 02:44:51;;;;;;;1.52;1.10;;;26.00;50.90;;;;;;5070176;28;20437;-39
2022/08/04 02:47:20;;;;;;;1.60;1.10;;;26.00;50.90;;;;;;5069964;28;20104;-39
2022/08/04 02:49:47;;;;;;;2.25;1.58;;;26.00;50.80;;;;;;5071163;28;20466;-38
2022/08/04 02:52:15;;;;;;;3.35;1.70;;;26.00;50.80;;;;;;5070337;28;20055;-46
2022/08/04 02:54:43;;;;;;;1.10;1.00;;;26.00;50.80;;;;;;5068923;28;20028;-39
2022/08/04 02:57:11;;;;;;;5.90;1.33;;;26.00;50.70;;;;;;5071396;28;20021;-41
2022/08/04 02:59:55;;;;;;;2.60;1.25;;;26.00;50.70;;;;;;5072763;28;20047;-39
2022/08/04 03:02:50;;;;;;;2.88;1.60;;;26.00;50.90;;;;;;5066691;28;20028;-39
2022/08/04 03:05:32;;;;;;;2.25;1.33;;;26.00;50.70;;;;;;5064457;28;20028;-39
2022/08/04 03:07:58;;;;;;;1.65;1.30;;;26.00;50.60;;;;;;5069615;28;20013;-38
2022/08/04 03:10:23;;;;;;;1.45;1.13;;;26.00;50.50;;;;;;5068287;28;20124;-39
2022/08/04 03:13:13;;;;;;;1.63;1.23;;;26.00;50.50;;;;;;5051242;28;20396;-39
2022/08/04 03:15:57;;;;;;;1.65;1.10;;;26.00;50.40;;;;;;5045602;28;20029;-39
2022/08/04 03:18:47;;;;;;;1.70;1.27;;;25.90;50.40;;;;;;5047284;28;20485;-39
2022/08/04 03:21:59;;;;;;;3.15;1.17;;;25.90;50.40;;;;;;5047605;28;20395;-46
2022/08/04 03:24:58;;;;;;;2.80;0.90;;;25.90;50.30;;;;;;5048457;28;20043;-39
2022/08/04 03:28:01;;;;;;;1.90;1.25;;;26.00;50.30;;;;;;5052677;28;20078;-39
2022/08/04 03:31:00;;;;;;;2.40;1.05;;;26.00;50.30;;;;;;5056240;28;20104;-39
2022/08/04 03:33:53;;;;;;;1.33;0.95;;;26.00;50.20;;;;;;5052831;28;20024;-47
2022/08/04 03:36:56;;;;;;;1.00;0.88;;;26.00;50.10;;;;;;5051774;28;20029;-42
2022/08/04 03:39:31;;;;;;;2.05;1.00;;;26.00;50.10;;;;;;5070666;28;20029;-39
2022/08/04 03:42:05;;;;;;;2.05;1.42;;;26.00;50.00;;;;;;5077488;28;20086;-39
2022/08/04 03:44:46;;;;;;;2.35;1.25;;;26.00;49.90;;;;;;5076441;28;20078;-39
2022/08/04 03:47:47;;;;;;;1.63;1.17;;;25.90;49.70;;;;;;5076991;28;20060;-43
2022/08/04 03:50:34;;;;;;;2.17;0.98;;;25.90;49.90;;;;;;5073023;28;20028;-45
2022/08/04 03:53:21;;;;;;;1.45;1.15;;;25.90;49.90;;;;;;5077167;28;20032;-39
2022/08/04 03:56:05;;;;;;;1.50;1.13;;;25.90;50.10;;;;;;5074143;28;20103;-39
2022/08/04 03:58:50;;;;;;;1.35;1.10;;;25.80;50.10;;;;;;5073974;28;20077;-39
2022/08/04 04:01:31;;;;;;;1.27;1.10;;;25.80;50.10;;;;;;5073482;28;20037;-44
2022/08/04 04:04:28;;;;;;;2.38;1.10;;;25.80;50.10;;;;;;5077064;28;20028;-39
2022/08/04 04:07:26;;;;;;;1.40;0.98;;;25.80;50.20;;;;;;5035167;28;20482;-39
2022/08/04 04:10:22;;;;;;;1.30;1.00;;;25.80;50.30;;;;;;5075548;28;20028;-39
2022/08/04 04:13:05;;;;;;;2.30;1.42;;;25.80;50.30;;;;;;5023204;28;20092;-39
2022/08/04 04:16:02;;;;;;;5.47;1.30;;;25.80;50.50;;;;;;5036132;28;20022;-39
2022/08/04 04:18:56;;;;;;;2.28;1.27;;;25.80;50.50;;;;;;5025345;28;20479;-39
2022/08/04 04:21:27;;;;;;;2.47;1.85;;;25.80;50.80;;;;;;4953879;28;20098;-39
2022/08/04 04:24:24;;;;;;;2.38;1.23;;;25.80;50.80;;;;;;5025880;28;20426;-39
2022/08/04 04:27:07;;;;;;;1.85;1.08;;;25.70;50.90;;;;;;5035434;28;20029;-40
2022/08/04 04:30:02;;;;;;;1.35;0.95;;;25.80;50.90;;;;;;5031594;28;20098;-38
2022/08/04 04:32:49;;;;;;;2.85;1.25;;;25.70;50.90;;;;;;5021187;28;20037;-39
2022/08/04 04:35:31;;;;;;;1.70;1.20;;;25.70;50.90;;;;;;5032841;28;20378;-43
2022/08/04 04:38:21;;;;;;;3.13;1.05;;;25.70;51.10;;;;;;5026527;28;20091;-39
2022/08/04 04:41:18;;;;;;;1.67;1.20;;;25.70;51.10;;;;;;5024357;28;20101;-39
2022/08/04 04:44:11;;;;;;;1.50;1.20;;;25.70;51.10;;;;;;5024837;28;20084;-39
2022/08/04 04:46:46;;;;;;;2.17;1.13;;;25.70;51.10;;;;;;5021592;28;20017;-39
2022/08/04 04:49:33;;;;;;;1.55;1.33;;;25.70;51.00;;;;;;5026229;28;20087;-39
2022/08/04 04:52:08;;;;;;;2.72;1.33;;;25.70;50.90;;;;;;5024243;28;20104;-43
2022/08/04 04:54:42;;;;;;;3.53;1.67;;;25.70;51.00;;;;;;5023715;28;20035;-39
2022/08/04 04:57:13;;;;;;;4.82;1.33;;;25.70;51.10;;;;;;5025198;28;20025;-40
2022/08/04 04:59:55;;;;;;;3.70;1.50;;;25.70;51.10;;;;;;5028050;28;20360;-39
2022/08/04 05:02:51;;;;;;;2.88;1.40;;;25.70;51.00;;;;;;5021780;28;20043;-39
2022/08/04 05:05:25;;;;;;;4.65;1.52;;;25.70;51.00;;;;;;5023282;28;20021;-42
2022/08/04 05:07:53;;;;;;;1.35;1.25;;;25.70;51.00;;;;;;5023166;28;20030;-39
2022/08/04 05:10:45;;;;;;;2.80;1.30;;;25.70;51.00;;;;;;5019920;28;20025;-45
2022/08/04 05:13:33;;;;;;;2.85;1.23;;;25.70;51.20;;;;;;5023149;28;20042;-44
2022/08/04 05:16:35;;;;;;;2.50;1.17;;;25.70;51.20;;;;;;5022763;28;20029;-39
2022/08/04 05:19:31;;;;;;;3.28;1.25;;;25.70;51.00;;;;;;5022752;28;20036;-38
2022/08/04 05:22:06;;;;;;;3.72;1.67;;;25.70;51.10;;;;;;5015885;28;20356;-39
2022/08/04 05:24:36;;;;;;;2.08;1.30;;;25.80;51.10;;;;;;5025739;28;20030;-39
2022/08/04 05:27:10;;;;;;;1.90;1.30;;;25.70;50.90;;;;;;5023107;28;20030;-39
2022/08/04 05:29:45;;;;;;;2.83;1.27;;;25.80;51.00;;;;;;5021305;28;20845;-38
2022/08/04 05:32:13;;;;;;;2.13;1.30;;;25.80;50.80;;;;;;5028967;28;20409;-39
2022/08/04 05:34:48;;;;;;;4.25;2.08;;;25.80;51.00;;;;;;5028558;28;20030;-39
2022/08/04 05:37:19;;;;;;;2.08;1.60;;;25.80;51.30;;;;;;5023201;28;20118;-39
2022/08/04 05:39:54;;;;;;;2.53;1.73;;;25.80;51.40;;;;;;5026698;28;20041;-39
2022/08/04 05:42:21;;;;;;;4.40;1.35;;;25.80;51.40;;;;;;5027638;28;20064;-45
2022/08/04 05:44:47;;;;;;;1.88;1.20;;;25.80;51.50;;;;;;5027502;28;20391;-39
2022/08/04 05:47:14;;;;;;;2.58;1.65;;;25.80;51.60;;;;;;5026621;28;20032;-39
2022/08/04 05:49:41;;;;;;;6.43;2.13;;;25.80;51.70;;;;;;5018006;28;20029;-40
2022/08/04 05:52:08;;;;;;;2.20;1.20;;;25.80;51.80;;;;;;5023001;28;20061;-39
2022/08/04 05:54:36;;;;;;;2.75;1.45;;;25.90;51.90;;;;;;5021270;28;20415;-39
2022/08/04 05:57:06;;;;;;;3.30;1.42;;;25.90;51.80;;;;;;5021726;28;20049;-41
2022/08/04 05:59:34;;;;;;;3.17;1.40;;;26.00;51.80;;;;;;5024707;28;20029;-39
2022/08/04 06:02:03;;;;;;;1.92;1.30;;;26.00;51.90;;;;;;5028966;28;20080;-39
2022/08/04 06:04:37;;;;;;;2.38;1.15;;;26.00;52.00;;;;;;5022965;28;20049;-40
2022/08/04 06:07:03;;;;;;;2.08;1.58;;;26.00;52.10;;;;;;5026442;28;20433;-39
2022/08/04 06:09:30;;;;;;;2.30;1.52;;;26.00;52.20;;;;;;5018123;28;20040;-39
2022/08/04 06:12:01;;;;;;;3.97;1.63;;;26.00;52.10;;;;;;5031983;28;20117;-42
2022/08/04 06:14:34;;;;;;;4.18;1.98;;;26.00;52.60;;;;;;5044469;28;20029;-38
2022/08/04 06:17:04;;;;;;;3.05;1.52;;;26.00;52.80;;;;;;5043265;28;20064;-42
2022/08/04 06:19:33;;;;;;;1.77;1.30;;;26.10;52.60;;;;;;5049704;28;20469;-38
2022/08/04 06:22:03;;;;;;;3.80;1.63;;;26.20;52.20;;;;;;5043737;28;20124;-39
2022/08/04 06:24:30;;;;;;;2.67;1.60;;;26.30;52.00;;;;;;5032645;28;20024;-39
2022/08/04 06:26:56;;;;;;;6.53;1.85;;;26.60;52.10;;;;;;5045428;28;20033;-39
2022/08/04 06:29:29;;;;;;;4.72;1.40;;;26.70;51.80;;;;;;5049308;28;20080;-42
2022/08/04 06:31:57;;;;;;;4.13;1.60;;;26.80;51.60;;;;;;5048102;28;20469;-40
2022/08/04 06:34:25;;;;;;;4.47;2.10;;;27.00;51.50;;;;;;5048969;28;20036;-42
2022/08/04 06:36:52;;;;;;;3.47;1.83;;;27.00;51.80;;;;;;5049938;28;20552;-38
2022/08/04 06:39:20;;;;;;;3.38;1.65;;;27.00;52.00;;;;;;5049179;28;20044;-38
2022/08/04 06:41:47;;;;;;;6.85;2.08;;;27.00;52.00;;;;;;5048950;28;20037;-38
2022/08/04 06:44:14;;;;;;;8.80;2.55;;;27.10;51.70;;;;;;5049334;28;20496;-38
2022/08/04 06:46:42;;;;;;;2.83;1.65;;;27.10;51.70;;;;;;5050577;28;20036;-38
2022/08/04 06:49:09;;;;;;;4.82;1.45;;;27.00;52.30;;;;;;5049428;28;20470;-38
2022/08/04 06:51:37;;;;;;;2.28;1.40;;;27.00;52.70;;;;;;5049195;28;20373;-38
2022/08/04 06:54:04;;;;;;;3.58;2.28;;;26.90;53.00;;;;;;5049672;28;20065;-38
2022/08/04 06:56:32;;;;;;;13.70;2.47;;;26.80;53.30;;;;;;5052028;28;20033;-38
2022/08/04 06:58:59;;;;;;;2.30;1.67;;;26.70;53.60;;;;;;5050733;28;20021;-38
2022/08/04 07:01:26;;;;;;;2.85;1.95;;;26.70;53.90;;;;;;5048284;28;20493;-40
2022/08/04 07:03:52;;;;;;;2.72;1.63;;;26.70;54.10;;;;;;5050649;28;20036;-38
2022/08/04 07:06:20;;;;;;;4.47;1.60;;;26.60;54.10;;;;;;5050373;28;20029;-41
2022/08/04 07:08:47;;;;;;;4.85;1.98;;;26.60;54.10;;;;;;5047864;28;20096;-38
2022/08/04 07:11:13;;;;;;;2.38;1.80;;;26.60;54.20;;;;;;5049266;28;20087;-38
2022/08/04 07:13:39;;;;;;;4.75;1.77;;;26.60;54.20;;;;;;5051961;28;20027;-38
2022/08/04 07:16:08;;;;;;;3.90;1.90;;;26.60;54.30;;;;;;5049563;28;20029;-38
2022/08/04 07:18:33;;;;;;;2.80;1.90;;;26.60;54.60;;;;;;5053498;28;20049;-39
2022/08/04 07:20:59;;;;;;;2.13;1.40;;;26.60;54.60;;;;;;5044406;28;20067;-38
2022/08/04 07:23:26;;;;;;;2.83;1.63;;;26.60;54.50;;;;;;5050051;28;20033;-44
2022/08/04 07:25:56;;;;;;;5.90;1.98;;;26.60;54.50;;;;;;5052218;28;20029;-38
2022/08/04 07:28:24;;;;;;;3.63;1.70;;;26.60;54.70;;;;;;5046937;28;20060;-42
2022/08/04 07:30:51;;;;;;;3.55;1.80;;;26.60;54.70;;;;;;5048945;28;20029;-38
2022/08/04 07:33:17;;;;;;;3.80;2.17;;;26.60;54.50;;;;;;5049654;28;20028;-38
2022/08/04 07:35:43;;;;;;;3.88;1.60;;;26.60;54.60;;;;;;5049316;28;20029;-38
2022/08/04 07:38:10;;;;;;;3.47;1.95;;;26.60;54.30;;;;;;5050275;28;20029;-42
2022/08/04 07:40:36;;;;;;;3.35;1.70;;;26.70;54.10;;;;;;5046187;28;20045;-38
2022/08/04 07:43:03;;;;;;;2.17;1.83;;;26.70;54.10;;;;;;5049159;28;20044;-39
2022/08/04 07:45:29;;;;;;;8.23;2.25;;;26.70;54.00;;;;;;5048040;28;20047;-39
2022/08/04 07:47:55;;;;;;;3.25;1.73;;;26.80;54.20;;;;;;5044290;28;20021;-42
2022/08/04 07:50:21;;;;;;;4.32;1.73;;;26.80;53.40;;;;;;5050320;28;20051;-38
2022/08/04 07:52:48;;;;;;;3.15;1.50;;;26.80;53.30;;;;;;5041254;28;20037;-38
2022/08/04 07:55:14;;;;;;;4.65;1.90;;;26.90;53.70;;;;;;5047939;28;20036;-39
2022/08/04 07:57:40;;;;;;;5.68;2.00;;;26.90;53.30;;;;;;5045720;28;20029;-38
2022/08/04 08:00:06;;;;;;;4.45;1.50;;;26.90;53.10;;;;;;5050281;28;20031;-38
2022/08/04 08:02:35;;;;;;;3.25;1.50;;;27.00;52.60;;;;;;5043394;28;20040;-38
2022/08/04 08:05:01;;;;;;;3.15;1.30;;;27.00;51.60;;;;;;5046019;28;20362;-39
2022/08/04 08:07:26;;;;;;;2.53;1.20;;;27.00;50.90;;;;;;5046069;28;20037;-42
2022/08/04 08:09:52;;;;;;;4.03;1.33;;;27.10;50.90;;;;;;5039039;28;20489;-38
2022/08/04 08:12:18;;;;;;;2.55;1.40;;;27.10;50.40;;;;;;5046086;28;20489;-38
2022/08/04 08:14:45;;;;;;;3.80;1.67;;;27.10;50.30;;;;;;5050678;28;20052;-40
2022/08/04 08:17:10;;;;;;;1.90;1.17;;;27.20;50.10;;;;;;5052713;28;20033;-38
2022/08/04 08:19:37;;;;;;;4.20;1.50;;;27.20;49.50;;;;;;5049633;28;20071;-38
2022/08/04 08:22:04;;;;;;;4.30;1.42;;;27.20;50.30;;;;;;5053860;28;20041;-38
2022/08/04 08:24:33;;;;;;;2.33;1.33;;;27.10;51.00;;;;;;5053260;28;20111;-38
2022/08/04 08:27:03;;;;;;;2.22;1.50;;;27.10;51.30;;;;;;5053743;28;20049;-39
2022/08/04 08:29:29;;;;;;;4.25;1.35;;;27.00;51.40;;;;;;5052719;28;20041;-43
2022/08/04 08:31:55;;;;;;;3.08;1.80;;;27.00;51.60;;;;;;5053200;28;20060;-38
2022/08/04 08:34:21;;;;;;;1.98;1.48;;;27.00;51.60;;;;;;5053501;28;20035;-38
2022/08/04 08:36:57;;;;;;;1.67;1.30;;;27.00;51.60;;;;;;5052872;28;20086;-38
2022/08/04 08:40:14;;;;;;;4.00;1.30;;;27.00;51.80;;;;;;5053299;28;20083;-38
2022/08/04 08:42:53;;;;;;;1.88;1.38;;;27.00;51.80;;;;;;5027390;28;20551;-38
2022/08/04 08:45:28;;;;;;;2.33;1.42;;;27.00;52.00;;;;;;5049223;28;20025;-39
2022/08/04 08:48:29;;;;;;;4.22;1.75;;;27.00;52.10;;;;;;5051340;28;20029;-38
2022/08/04 08:51:10;;;;;;;2.42;1.58;;;27.00;52.40;;;;;;5053460;28;20029;-38
2022/08/04 08:54:00;;;;;;;3.67;1.30;;;27.00;52.50;;;;;;5052356;28;20033;-38
2022/08/04 08:56:46;;;;;;;3.28;1.50;;;27.00;52.60;;;;;;5051793;28;20044;-42
2022/08/04 08:59:38;;;;;;;3.30;1.38;;;27.00;52.60;;;;;;5052510;28;20100;-38
2022/08/04 09:02:40;;;;;;;1.40;1.15;;;27.00;52.60;;;;;;5045766;28;20033;-38
2022/08/04 09:05:14;;;;;;;;;;;27.00;52.70;;;;;;5052292;28;20079;-39
2022/08/04 09:08:00;;;;;;;3.88;1.40;;;27.00;52.90;;;;;;5051509;28;20319;-38
2022/08/04 09:10:31;;;;;;;3.67;1.77;;;27.00;53.00;;;;;;5045788;28;20064;-44
2022/08/04 09:12:59;;;;;;;1.30;1.17;;;27.00;53.50;;;;;;5051095;28;20048;-39
2022/08/04 09:15:40;;;;;;;2.17;1.52;;;27.00;53.10;;;;;;5049193;28;20359;-39
2022/08/04 09:18:26;;;;;;;3.83;1.63;;;27.00;53.10;;;;;;5052273;28;20458;-39
2022/08/04 09:21:12;;;;;;;2.97;1.75;;;27.00;53.40;;;;;;5051756;28;20040;-39
2022/08/04 09:24:02;;;;;;;2.83;1.20;;;27.00;53.10;;;;;;5050278;28;20109;-38
2022/08/04 09:26:49;;;;;;;2.42;1.20;;;27.00;53.30;;;;;;5055090;28;20371;-42
2022/08/04 09:29:37;;;;;;;3.63;1.55;;;27.00;53.20;;;;;;5050477;28;20029;-38
2022/08/04 09:32:21;;;;;;;1.55;1.30;;;27.00;53.40;;;;;;5048636;28;20098;-38
2022/08/04 09:35:06;;;;;;;3.00;1.13;;;27.00;53.40;;;;;;5047241;28;20033;-38
2022/08/04 09:37:40;;;;;;;2.38;1.20;;;27.00;53.30;;;;;;5048897;28;20025;-39
2022/08/04 09:40:27;;;;;;;1.40;1.10;;;27.00;53.30;;;;;;5053113;28;20025;-39
2022/08/04 09:43:05;;;;;;;2.55;1.20;;;27.00;53.30;;;;;;5046326;28;20044;-39
2022/08/04 09:45:47;;;;;;;2.42;1.40;;;27.00;53.50;;;;;;5050464;28;20029;-42
2022/08/04 09:48:15;;;;;;;;;;;27.00;53.40;;;;;;5052156;28;20359;-38
2022/08/04 09:50:44;;;;;;;3.97;1.40;;;27.00;53.30;;;;;;5051051;28;20277;-38
2022/08/04 09:53:31;;;;;;;1.50;1.00;;;27.00;53.40;;;;;;5051214;28;20028;-39
2022/08/04 09:56:13;;;;;;;2.30;1.30;;;27.10;53.30;;;;;;5047639;28;20032;-39
2022/08/04 09:59:20;;;;;;;4.40;1.38;;;27.10;53.30;;;;;;5050993;28;20115;-38
2022/08/04 10:01:53;;;;;;;2.28;1.20;;;27.00;53.30;;;;;;5010465;28;20057;-39
2022/08/04 10:04:21;;;;;;;2.60;1.50;;;27.10;53.30;;;;;;5051324;28;20029;-38
2022/08/04 10:06:52;;;;;;;2.42;1.30;;;27.10;53.30;;;;;;5050730;28;20032;-38
2022/08/04 10:09:33;;;;;;;1.63;1.38;;;27.10;53.20;;;;;;5051704;28;20043;-38
2022/08/04 10:12:04;;;;;;;1.50;1.00;;;27.10;53.20;;;;;;5045777;28;20413;-40
2022/08/04 10:14:56;;;;;;;3.33;1.33;;;27.10;53.20;;;;;;5046814;28;20024;-42
2022/08/04 10:17:22;;;;;;;;;;;27.10;53.10;;;;;;5040191;28;20062;-40
2022/08/04 10:20:00;;;;;;;4.07;1.17;;;27.10;53.20;;;;;;5048295;28;20357;-38
2022/08/04 10:22:35;;;;;;;3.63;1.40;;;27.10;53.30;;;;;;5062215;28;20033;-38
2022/08/04 10:25:19;;;;;;;2.30;1.50;;;27.10;53.10;;;;;;5059327;28;20020;-39
2022/08/04 10:27:49;;;;;;;5.03;1.60;;;27.10;53.00;;;;;;5051929;28;20162;-38
2022/08/04 10:30:18;;;;;;;1.42;1.10;;;27.20;52.60;;;;;;5051749;28;20040;-38
2022/08/04 10:32:43;;;;;;;5.93;2.05;;;27.20;52.40;;;;;;5051105;28;20032;-38
2022/08/04 10:35:20;;;;;;;3.03;1.20;;;27.20;53.00;;;;;;5050389;28;20025;-38
2022/08/04 10:38:19;;;;;;;2.05;1.42;;;27.20;53.10;;;;;;5049263;28;20060;-38
2022/08/04 10:40:49;;;;;;;1.50;1.17;;;27.20;53.30;;;;;;5048954;28;20032;-37
2022/08/04 10:43:31;;;;;;;3.25;1.30;;;27.20;53.40;;;;;;5051690;28;20044;-38
2022/08/04 10:46:05;;;;;;;1.50;1.40;;;27.20;53.40;;;;;;5051404;28;20036;-38
2022/08/04 10:48:55;;;;;;;3.22;1.15;;;27.20;53.30;;;;;;5050348;28;20079;-42
2022/08/04 10:51:32;;;;;;;2.15;1.10;;;27.20;53.30;;;;;;5050849;28;20060;-38
2022/08/04 10:54:09;;;;;;;1.20;0.95;;;27.20;53.50;;;;;;5047945;28;20033;-38
2022/08/04 10:56:40;;;;;;;3.95;1.33;;;27.20;53.60;;;;;;5054957;28;20031;-37
2022/08/04 10:59:44;;;;;;;2.45;1.60;;;27.20;54.10;;;;;;5050763;28;20033;-41
2022/08/04 11:02:29;;;;;;;3.78;1.10;;;27.20;53.30;;;;;;5045745;28;20436;-38
2022/08/04 11:05:17;;;;;;;2.08;1.85;;;27.20;53.10;;;;;;5043647;28;20044;-39
2022/08/04 11:07:46;;;;;;;7.20;1.98;;;27.20;53.00;;;;;;5045387;28;20083;-38
2022/08/04 11:10:12;;;;;;;1.65;1.20;;;27.20;53.00;;;;;;5050428;28;20025;-38
2022/08/04 11:12:41;;;;;;;3.08;1.35;;;27.30;53.00;;;;;;5049377;28;20056;-38
2022/08/04 11:15:22;;;;;;;2.42;1.42;;;27.30;53.00;;;;;;5050860;28;20078;-39
2022/08/04 11:18:05;;;;;;;3.83;1.80;;;27.20;53.00;;;;;;5050096;28;20057;-38
2022/08/04 11:20:54;;;;;;;2.83;1.60;;;27.20;53.20;;;;;;5049960;28;20037;-42
2022/08/04 11:23:27;;;;;;;2.65;1.50;;;27.20;53.30;;;;;;5050204;28;20124;-38
2022/08/04 11:26:11;;;;;;;3.70;1.75;;;27.30;55.10;;;;;;5044989;28;20492;-39
2022/08/04 11:28:39;;;;;;;5.85;2.08;;;27.30;55.40;;;;;;5049085;28;20029;-39
2022/08/04 11:31:27;;;;;;;3.72;1.40;;;27.30;55.50;;;;;;5050571;28;20155;-39
2022/08/04 11:34:02;;;;;;;2.50;1.40;;;27.30;55.00;;;;;;5050117;28;20028;-39
2022/08/04 11:36:40;;;;;;;2.00;1.50;;;27.30;54.70;;;;;;5050323;28;20033;-43
2022/08/04 11:39:32;;;;;;;2.50;1.45;;;27.30;54.70;;;;;;5044437;28;20024;-39
2022/08/04 11:42:21;;;;;;;5.03;1.35;;;27.30;54.50;;;;;;5049172;28;20044;-39
2022/08/04 11:45:00;;;;;;;1.85;1.27;;;27.30;54.50;;;;;;5049122;28;20028;-38
2022/08/04 11:47:40;;;;;;;2.75;1.38;;;27.30;54.40;;;;;;5050763;28;20112;-39
2022/08/04 11:50:26;;;;;;;1.77;1.45;;;27.30;54.50;;;;;;5054082;28;20438;-38
2022/08/04 11:52:54;;;;;;;2.75;1.50;;;27.30;54.40;;;;;;5047095;28;20044;-39
2022/08/04 11:55:21;;;;;;;1.92;1.20;;;27.30;54.40;;;;;;5057880;28;20035;-38
2022/08/04 11:57:48;;;;;;;2.75;1.45;;;27.30;54.30;;;;;;5053718;28;20033;-39
2022/08/04 12:00:16;;;;;;;1.90;1.13;;;27.40;53.10;;;;;;5053449;28;20044;-38
2022/08/04 12:03:17;;;;;;;1.60;1.23;;;27.50;52.10;;;;;;5052554;28;20029;-38
2022/08/04 12:06:13;;;;;;;9.57;1.70;;;27.50;52.10;;;;;;5021116;28;20106;-39
2022/08/04 12:08:56;;;;;;;3.17;1.40;;;27.40;52.60;;;;;;5053294;28;20037;-39
2022/08/04 12:11:51;;;;;;;1.55;1.30;;;27.40;52.60;;;;;;5053578;28;20049;-39
2022/08/04 12:14:38;;;;;;;1.83;1.20;;;27.40;52.70;;;;;;5049236;28;20029;-39
2022/08/04 12:17:06;;;;;;;2.17;1.10;;;27.40;52.50;;;;;;5051105;28;20105;-39
2022/08/04 12:19:57;;;;;;;1.83;1.45;;;27.60;50.40;;;;;;5052807;28;20067;-40
2022/08/04 12:22:24;;;;;;;1.65;1.42;;;27.80;48.60;;;;;;5051945;28;20389;-39
2022/08/04 12:25:05;;;;;;;1.25;1.15;;;27.90;49.00;;;;;;5056192;28;20028;-39
2022/08/04 12:27:54;;;;;;;2.88;1.80;;;27.80;49.90;;;;;;5051394;28;20393;-43
2022/08/04 12:30:21;;;;;;;1.77;1.10;;;27.70;50.50;;;;;;5052404;28;20118;-39
2022/08/04 12:32:56;;;;;;;1.50;1.30;;;27.60;50.90;;;;;;5052951;28;20024;-39
2022/08/04 12:35:29;;;;;;;1.63;1.40;;;27.60;51.10;;;;;;5053108;28;20040;-39
2022/08/04 12:38:03;;;;;;;3.17;1.30;;;27.50;51.20;;;;;;5051866;28;20025;-39
2022/08/04 12:40:48;;;;;;;1.95;1.42;;;27.60;49.90;;;;;;5053044;28;20059;-43
2022/08/04 12:43:21;;;;;;;1.70;1.20;;;27.80;48.40;;;;;;5052768;28;20041;-39
2022/08/04 12:45:55;;;;;;;2.97;1.40;;;28.00;47.40;;;;;;5052677;28;20949;-39
2022/08/04 12:48:24;;;;;;;1.63;1.42;;;28.10;47.60;;;;;;5050021;28;20066;-39
2022/08/04 12:50:55;;;;;;;2.08;1.30;;;28.10;47.10;;;;;;5052471;28;20048;-39
2022/08/04 12:53:25;;;;;;;;;;;28.10;46.50;;;;;;5053549;28;20167;-39
2022/08/04 12:55:52;;;;;;;1.65;1.55;;;28.10;46.20;;;;;;5051993;28;19909;-39
2022/08/04 12:58:24;;;;;;;2.58;1.42;;;28.20;46.50;;;;;;5053154;28;20028;-39
2022/08/04 13:00:59;;;;;;;5.85;1.88;;;28.20;46.60;;;;;;5050913;28;20032;-38
2022/08/04 13:03:37;;;;;;;1.90;1.48;;;28.20;46.50;;;;;;5050450;28;20052;-38
2022/08/04 13:06:05;;;;;;;3.67;1.50;;;28.20;46.20;;;;;;5050248;28;20029;-37
2022/08/04 13:08:36;;;;;;;1.67;1.50;;;28.20;46.90;;;;;;5051497;28;20033;-44
2022/08/04 13:11:03;;;;;;;1.38;1.20;;;28.10;47.30;;;;;;5052757;28;20060;-40
2022/08/04 13:13:32;;;;;;;2.15;1.42;;;27.90;48.00;;;;;;5052343;28;20440;-42
2022/08/04 13:16:02;;;;;;;1.38;1.27;;;27.90;48.40;;;;;;5048591;28;20021;-38
2022/08/04 13:18:45;;;;;;;2.00;1.60;;;27.80;48.80;;;;;;5052748;28;20025;-42
2022/08/04 13:21:22;;;;;;;3.78;1.50;;;27.70;49.10;;;;;;5051932;28;20104;-38
2022/08/04 13:23:55;;;;;;;1.55;1.35;;;27.70;49.40;;;;;;5051594;28;20016;-38
2022/08/04 13:26:21;;;;;;;1.30;1.20;;;27.60;49.50;;;;;;5052776;28;20025;-38
2022/08/04 13:28:48;;;;;;;4.82;1.85;;;27.60;49.60;;;;;;5051825;28;20230;-38
2022/08/04 13:31:20;;;;;;;2.38;1.30;;;27.60;49.90;;;;;;5051535;28;20033;-38
2022/08/04 13:33:50;;;;;;;2.13;1.40;;;27.60;49.90;;;;;;5051711;28;20029;-38
2022/08/04 13:36:17;;;;;;;3.28;1.40;;;27.60;50.20;;;;;;5052883;28;20533;-38
2022/08/04 13:38:57;;;;;;;2.95;1.48;;;27.60;50.20;;;;;;5050836;28;20043;-38